createdAt,value
2018-06-09T00:00:54.111Z,0
2018-06-09T00:01:54.057Z,0
2018-06-09T00:02:53.593Z,0
2018-06-09T00:03:53.866Z,0
2018-06-09T00:04:54.133Z,0
2018-06-09T00:05:54.169Z,0
2018-06-09T00:06:53.935Z,0
2018-06-09T00:07:54.213Z,0
2018-06-09T00:08:54.230Z,0
2018-06-09T00:09:53.981Z,0
2018-06-09T00:10:54.276Z,0
2018-06-09T00:11:53.778Z,0
2018-06-09T00:12:54.052Z,0
2018-06-09T00:13:54.094Z,0
2018-06-09T00:14:54.380Z,0
2018-06-09T00:15:54.454Z,0
2018-06-09T00:16:54.420Z,0
2018-06-09T00:17:54.446Z,0
2018-06-09T00:18:54.510Z,0
2018-06-09T00:19:53.744Z,0
2018-06-09T00:20:54.529Z,0
2018-06-09T00:21:54.287Z,0
2018-06-09T00:22:54.316Z,0
2018-06-09T00:23:54.339Z,0
2018-06-09T00:24:53.855Z,0
2018-06-09T00:25:54.639Z,0
2018-06-09T00:26:54.662Z,0
2018-06-09T00:27:54.176Z,0
2018-06-09T00:28:54.711Z,0
2018-06-09T00:29:54.214Z,0
2018-06-09T00:30:54.544Z,0
2018-06-09T00:31:54.767Z,0
2018-06-09T00:32:54.246Z,0
2018-06-09T00:33:54.877Z,0
2018-06-09T00:34:54.837Z,0
2018-06-09T00:35:55.020Z,0
2018-06-09T00:36:54.643Z,0
2018-06-09T00:37:54.662Z,0
2018-06-09T00:38:54.950Z,0
2018-06-09T00:39:54.967Z,0
2018-06-09T00:40:54.741Z,0
2018-06-09T00:41:55.012Z,0
2018-06-09T00:42:54.813Z,0
2018-06-09T00:43:54.827Z,0
2018-06-09T00:44:54.608Z,0
2018-06-09T00:45:55.031Z,0
2018-06-09T00:46:55.164Z,0
2018-06-09T00:47:54.923Z,0
2018-06-09T00:48:54.953Z,0
2018-06-09T00:49:54.974Z,0
2018-06-09T00:50:55.255Z,0
2018-06-09T00:51:55.042Z,0
2018-06-09T00:52:55.059Z,0
2018-06-09T00:53:55.339Z,0
2018-06-09T00:54:55.103Z,0
2018-06-09T00:55:55.127Z,0
2018-06-09T00:56:55.153Z,0
2018-06-09T00:57:55.175Z,0
2018-06-09T00:58:55.458Z,0
2018-06-09T00:59:55.474Z,0
2018-06-09T01:00:55.297Z,0
2018-06-09T01:01:55.272Z,0
2018-06-09T01:02:55.051Z,0
2018-06-09T01:03:55.572Z,0
2018-06-09T01:04:55.604Z,0
2018-06-09T01:05:55.376Z,0
2018-06-09T01:06:55.648Z,0
2018-06-09T01:07:55.679Z,0
2018-06-09T01:08:55.453Z,0
2018-06-09T01:09:55.719Z,0
2018-06-09T01:10:55.760Z,0
2018-06-09T01:11:55.768Z,0
2018-06-09T01:12:55.554Z,0
2018-06-09T01:13:55.313Z,0
2018-06-09T01:14:55.592Z,0
2018-06-09T01:15:55.675Z,0
2018-06-09T01:16:55.895Z,0
2018-06-09T01:17:55.671Z,0
2018-06-09T01:18:55.695Z,0
2018-06-09T01:19:55.728Z,0
2018-06-09T01:20:55.490Z,0
2018-06-09T01:21:56.034Z,0
2018-06-09T01:22:56.054Z,0
2018-06-09T01:23:55.814Z,0
2018-06-09T01:24:56.070Z,0
2018-06-09T01:25:56.107Z,0
2018-06-09T01:26:56.121Z,0
2018-06-09T01:27:55.898Z,0
2018-06-09T01:28:55.922Z,0
2018-06-09T01:29:56.221Z,0
2018-06-09T01:30:55.530Z,0
2018-06-09T01:31:56.274Z,0
2018-06-09T01:32:55.784Z,0
2018-06-09T01:33:56.283Z,0
2018-06-09T01:34:55.831Z,0
2018-06-09T01:35:56.359Z,0
2018-06-09T01:36:56.380Z,0
2018-06-09T01:37:56.425Z,0
2018-06-09T01:38:56.179Z,0
2018-06-09T01:39:56.476Z,0
2018-06-09T01:40:56.519Z,0
2018-06-09T01:41:56.254Z,0
2018-06-09T01:42:56.510Z,0
2018-06-09T01:43:56.544Z,0
2018-06-09T01:44:56.303Z,0
2018-06-09T01:45:56.391Z,0
2018-06-09T01:46:56.630Z,0
2018-06-09T01:47:56.626Z,0
2018-06-09T01:48:56.400Z,0
2018-06-09T01:49:56.680Z,0
2018-06-09T01:50:56.203Z,0
2018-06-09T01:51:56.482Z,0
2018-06-09T01:52:56.399Z,0
2018-06-09T01:53:56.786Z,0
2018-06-09T01:54:56.560Z,0
2018-06-09T01:55:56.836Z,0
2018-06-09T01:56:56.872Z,0
2018-06-09T01:57:56.402Z,0
2018-06-09T01:58:56.917Z,0
2018-06-09T01:59:56.939Z,0
2018-06-09T02:00:56.755Z,0
2018-06-09T02:01:56.712Z,0
2018-06-09T02:02:56.993Z,0
2018-06-09T02:03:57.018Z,0
2018-06-09T02:04:56.793Z,0
2018-06-09T02:05:57.167Z,0
2018-06-09T02:06:57.091Z,0
2018-06-09T02:07:57.143Z,0
2018-06-09T02:08:56.629Z,0
2018-06-09T02:09:57.169Z,0
2018-06-09T02:10:57.191Z,0
2018-06-09T02:11:57.194Z,0
2018-06-09T02:12:56.725Z,0
2018-06-09T02:13:56.743Z,0
2018-06-09T02:14:57.272Z,0
2018-06-09T02:15:57.100Z,0
2018-06-09T02:16:57.069Z,0
2018-06-09T02:17:57.089Z,0
2018-06-09T02:18:57.374Z,0
2018-06-09T02:19:56.887Z,0
2018-06-09T02:20:57.159Z,0
2018-06-09T02:21:57.436Z,0
2018-06-09T02:22:56.956Z,0
2018-06-09T02:23:57.518Z,0
2018-06-09T02:24:57.289Z,0
2018-06-09T02:25:57.568Z,0
2018-06-09T02:26:57.338Z,0
2018-06-09T02:27:57.610Z,0
2018-06-09T02:28:57.645Z,0
2018-06-09T02:29:57.155Z,0
2018-06-09T02:30:57.496Z,0
2018-06-09T02:31:57.208Z,0
2018-06-09T02:32:57.543Z,0
2018-06-09T02:33:57.278Z,0
2018-06-09T02:34:57.282Z,0
2018-06-09T02:35:57.350Z,0
2018-06-09T02:36:57.853Z,0
2018-06-09T02:37:57.864Z,0
2018-06-09T02:38:57.121Z,0
2018-06-09T02:39:57.876Z,0
2018-06-09T02:40:58.005Z,0
2018-06-09T02:41:57.672Z,0
2018-06-09T02:42:57.699Z,0
2018-06-09T02:43:57.718Z,0
2018-06-09T02:44:58.018Z,0
2018-06-09T02:45:57.771Z,0
2018-06-09T02:46:58.062Z,0
2018-06-09T02:47:57.850Z,0
2018-06-09T02:48:57.863Z,0
2018-06-09T02:49:57.627Z,0
2018-06-09T02:50:58.217Z,0
2018-06-09T02:51:58.190Z,0
2018-06-09T02:52:57.973Z,0
2018-06-09T02:53:58.230Z,0
2018-06-09T02:54:58.020Z,0
2018-06-09T02:55:57.769Z,0
2018-06-09T02:56:58.108Z,0
2018-06-09T02:57:58.057Z,0
2018-06-09T02:58:58.337Z,0
2018-06-09T02:59:57.852Z,0
2018-06-09T03:00:57.624Z,0
2018-06-09T03:01:58.403Z,0
2018-06-09T03:02:57.930Z,0
2018-06-09T03:03:58.199Z,0
2018-06-09T03:04:58.245Z,0
2018-06-09T03:05:58.065Z,0
2018-06-09T03:06:58.544Z,0
2018-06-09T03:07:58.056Z,0
2018-06-09T03:08:58.604Z,0
2018-06-09T03:09:58.624Z,0
2018-06-09T03:10:58.380Z,0
2018-06-09T03:11:58.397Z,0
2018-06-09T03:12:58.428Z,5
2018-06-09T03:13:58.198Z,5
2018-06-09T03:14:58.480Z,5
2018-06-09T03:15:58.492Z,5
2018-06-09T03:16:58.515Z,5
2018-06-09T03:17:58.792Z,5
2018-06-09T03:18:58.795Z,5
2018-06-09T03:19:58.817Z,5
2018-06-09T03:20:58.905Z,5
2018-06-09T03:21:58.870Z,10
2018-06-09T03:22:58.892Z,10
2018-06-09T03:23:58.908Z,10
2018-06-09T03:24:58.938Z,10
2018-06-09T03:25:58.965Z,10
2018-06-09T03:26:58.989Z,10
2018-06-09T03:27:59.007Z,10
2018-06-09T03:28:59.035Z,15
2018-06-09T03:29:58.811Z,15
2018-06-09T03:30:59.110Z,15
2018-06-09T03:31:59.112Z,15
2018-06-09T03:32:58.877Z,15
2018-06-09T03:33:59.171Z,15
2018-06-09T03:34:58.927Z,20
2018-06-09T03:35:59.250Z,20
2018-06-09T03:36:59.238Z,20
2018-06-09T03:37:58.504Z,20
2018-06-09T03:38:59.290Z,20
2018-06-09T03:39:59.054Z,25
2018-06-09T03:40:59.079Z,25
2018-06-09T03:41:59.361Z,25
2018-06-09T03:42:59.383Z,25
2018-06-09T03:43:59.415Z,30
2018-06-09T03:44:59.424Z,30
2018-06-09T03:45:59.415Z,30
2018-06-09T03:46:59.428Z,30
2018-06-09T03:47:59.204Z,30
2018-06-09T03:48:59.221Z,35
2018-06-09T03:49:59.500Z,35
2018-06-09T03:50:59.326Z,35
2018-06-09T03:51:59.565Z,35
2018-06-09T03:52:59.067Z,35
2018-06-09T03:53:59.100Z,35
2018-06-09T03:54:59.367Z,35
2018-06-09T03:55:59.932Z,40
2018-06-09T03:56:59.200Z,40
2018-06-09T03:57:59.723Z,40
2018-06-09T03:58:59.753Z,40
2018-06-09T03:59:59.782Z,40
2018-06-09T04:00:59.811Z,40
2018-06-09T04:01:59.826Z,40
2018-06-09T04:02:59.844Z,40
2018-06-09T04:03:59.367Z,40
2018-06-09T04:04:59.643Z,40
2018-06-09T04:05:59.721Z,40
2018-06-09T04:06:59.444Z,40
2018-06-09T04:07:59.713Z,45
2018-06-09T04:08:59.609Z,45
2018-06-09T04:09:59.508Z,40
2018-06-09T04:10:59.589Z,40
2018-06-09T04:11:59.818Z,40
2018-06-09T04:12:59.835Z,40
2018-06-09T04:13:59.863Z,40
2018-06-09T04:14:59.884Z,45
2018-06-09T04:16:00.242Z,45
2018-06-09T04:16:59.686Z,45
2018-06-09T04:17:59.965Z,50
2018-06-09T04:18:59.982Z,50
2018-06-09T04:20:00.007Z,55
2018-06-09T04:21:00.284Z,55
2018-06-09T04:22:00.053Z,60
2018-06-09T04:22:59.832Z,60
2018-06-09T04:24:00.099Z,65
2018-06-09T04:25:00.421Z,65
2018-06-09T04:26:00.401Z,65
2018-06-09T04:27:00.475Z,70
2018-06-09T04:27:59.967Z,75
2018-06-09T04:28:59.966Z,75
2018-06-09T04:30:00.244Z,80
2018-06-09T04:31:00.326Z,80
2018-06-09T04:32:00.299Z,85
2018-06-09T04:33:00.578Z,85
2018-06-09T04:34:00.816Z,90
2018-06-09T04:35:00.377Z,90
2018-06-09T04:36:00.451Z,90
2018-06-09T04:37:00.169Z,90
2018-06-09T04:37:59.933Z,95
2018-06-09T04:39:00.487Z,95
2018-06-09T04:40:00.340Z,95
2018-06-09T04:41:00.778Z,100
2018-06-09T04:42:00.798Z,100
2018-06-09T04:43:00.811Z,100
2018-06-09T04:44:00.847Z,100
2018-06-09T04:45:00.876Z,105
2018-06-09T04:46:00.512Z,105
2018-06-09T04:47:00.938Z,105
2018-06-09T04:48:00.699Z,105
2018-06-09T04:49:00.976Z,105
2018-06-09T04:50:00.987Z,105
2018-06-09T04:51:01.010Z,110
2018-06-09T04:52:01.050Z,110
2018-06-09T04:53:00.557Z,105
2018-06-09T04:54:00.834Z,110
2018-06-09T04:55:00.856Z,115
2018-06-09T04:56:00.628Z,115
2018-06-09T04:57:01.172Z,120
2018-06-09T04:58:00.930Z,120
2018-06-09T04:59:01.209Z,120
2018-06-09T05:00:00.728Z,125
2018-06-09T05:01:01.070Z,125
2018-06-09T05:02:01.037Z,125
2018-06-09T05:03:01.054Z,125
2018-06-09T05:04:01.330Z,125
2018-06-09T05:05:01.102Z,125
2018-06-09T05:06:01.401Z,125
2018-06-09T05:07:01.408Z,125
2018-06-09T05:08:01.443Z,125
2018-06-09T05:09:01.451Z,130
2018-06-09T05:10:01.241Z,130
2018-06-09T05:11:01.500Z,130
2018-06-09T05:12:01.273Z,135
2018-06-09T05:13:01.792Z,135
2018-06-09T05:14:01.326Z,135
2018-06-09T05:15:01.620Z,135
2018-06-09T05:16:01.775Z,140
2018-06-09T05:17:01.131Z,140
2018-06-09T05:18:01.658Z,140
2018-06-09T05:19:00.924Z,145
2018-06-09T05:20:01.453Z,145
2018-06-09T05:21:01.726Z,145
2018-06-09T05:22:01.763Z,145
2018-06-09T05:23:01.529Z,150
2018-06-09T05:24:01.802Z,150
2018-06-09T05:25:01.830Z,150
2018-06-09T05:26:01.895Z,150
2018-06-09T05:27:01.887Z,155
2018-06-09T05:28:02.002Z,155
2018-06-09T05:29:01.926Z,155
2018-06-09T05:30:01.694Z,160
2018-06-09T05:31:01.521Z,160
2018-06-09T05:32:01.751Z,160
2018-06-09T05:33:02.022Z,160
2018-06-09T05:34:02.048Z,165
2018-06-09T05:35:02.074Z,165
2018-06-09T05:36:01.957Z,165
2018-06-09T05:37:01.646Z,165
2018-06-09T05:38:01.654Z,165
2018-06-09T05:39:01.681Z,165
2018-06-09T05:40:02.209Z,165
2018-06-09T05:41:01.989Z,170
2018-06-09T05:42:02.011Z,170
2018-06-09T05:43:02.033Z,170
2018-06-09T05:44:02.315Z,175
2018-06-09T05:45:02.082Z,175
2018-06-09T05:46:02.509Z,175
2018-06-09T05:47:02.139Z,175
2018-06-09T05:48:02.404Z,180
2018-06-09T05:49:02.180Z,180
2018-06-09T05:50:01.950Z,185
2018-06-09T05:51:02.227Z,185
2018-06-09T05:52:02.535Z,185
2018-06-09T05:53:02.528Z,185
2018-06-09T05:54:02.546Z,185
2018-06-09T05:55:02.566Z,190
2018-06-09T05:56:02.595Z,190
2018-06-09T05:57:02.640Z,190
2018-06-09T05:58:02.648Z,195
2018-06-09T05:59:02.669Z,195
2018-06-09T06:00:02.697Z,195
2018-06-09T06:01:02.761Z,195
2018-06-09T06:02:02.006Z,195
2018-06-09T06:03:02.324Z,195
2018-06-09T06:04:02.780Z,200
2018-06-09T06:05:02.330Z,200
2018-06-09T06:06:02.706Z,200
2018-06-09T06:07:02.386Z,200
2018-06-09T06:08:02.409Z,200
2018-06-09T06:09:02.434Z,200
2018-06-09T06:10:02.699Z,200
2018-06-09T06:11:03.031Z,190
2018-06-09T06:12:02.754Z,195
2018-06-09T06:13:02.771Z,200
2018-06-09T06:14:03.051Z,200
2018-06-09T06:15:02.826Z,205
2018-06-09T06:16:02.593Z,205
2018-06-09T06:17:02.363Z,205
2018-06-09T06:18:02.645Z,205
2018-06-09T06:19:03.181Z,210
2018-06-09T06:20:03.198Z,210
2018-06-09T06:21:02.471Z,210
2018-06-09T06:22:02.986Z,210
2018-06-09T06:23:03.255Z,210
2018-06-09T06:24:03.030Z,210
2018-06-09T06:25:02.800Z,210
2018-06-09T06:26:03.160Z,210
2018-06-09T06:27:03.123Z,210
2018-06-09T06:28:03.408Z,215
2018-06-09T06:29:02.921Z,215
2018-06-09T06:30:03.198Z,215
2018-06-09T06:31:03.480Z,220
2018-06-09T06:32:03.888Z,220
2018-06-09T06:33:03.284Z,220
2018-06-09T06:34:03.053Z,220
2018-06-09T06:35:03.592Z,225
2018-06-09T06:36:03.364Z,225
2018-06-09T06:37:03.629Z,225
2018-06-09T06:38:03.404Z,225
2018-06-09T06:39:03.433Z,225
2018-06-09T06:40:03.236Z,225
2018-06-09T06:41:03.523Z,230
2018-06-09T06:42:03.754Z,230
2018-06-09T06:43:03.288Z,230
2018-06-09T06:44:03.289Z,230
2018-06-09T06:45:03.406Z,230
2018-06-09T06:46:03.593Z,230
2018-06-09T06:47:03.629Z,235
2018-06-09T06:48:03.642Z,235
2018-06-09T06:49:03.669Z,230
2018-06-09T06:50:03.713Z,240
2018-06-09T06:51:03.732Z,240
2018-06-09T06:52:03.771Z,240
2018-06-09T06:53:04.038Z,240
2018-06-09T06:54:04.060Z,245
2018-06-09T06:55:03.836Z,250
2018-06-09T06:56:03.671Z,245
2018-06-09T06:57:04.154Z,245
2018-06-09T06:58:03.934Z,245
2018-06-09T06:59:03.699Z,245
2018-06-09T07:00:04.252Z,245
2018-06-09T07:01:03.737Z,245
2018-06-09T07:02:03.923Z,250
2018-06-09T07:03:04.034Z,250
2018-06-09T07:04:04.057Z,255
2018-06-09T07:05:03.852Z,255
2018-06-09T07:06:04.115Z,255
2018-06-09T07:07:04.146Z,255
2018-06-09T07:08:04.333Z,260
2018-06-09T07:09:04.192Z,250
2018-06-09T07:10:04.225Z,255
2018-06-09T07:11:04.048Z,255
2018-06-09T07:12:04.275Z,260
2018-06-09T07:13:04.065Z,260
2018-06-09T07:14:04.327Z,255
2018-06-09T07:15:04.605Z,210
2018-06-09T07:16:04.378Z,230
2018-06-09T07:17:04.664Z,255
2018-06-09T07:18:04.181Z,255
2018-06-09T07:19:04.200Z,260
2018-06-09T07:20:04.237Z,265
2018-06-09T07:21:04.517Z,275
2018-06-09T07:22:04.790Z,285
2018-06-09T07:23:04.808Z,290
2018-06-09T07:24:04.584Z,310
2018-06-09T07:25:04.814Z,320
2018-06-09T07:26:04.944Z,320
2018-06-09T07:27:04.413Z,275
2018-06-09T07:28:04.709Z,295
2018-06-09T07:29:04.965Z,300
2018-06-09T07:30:04.748Z,290
2018-06-09T07:31:04.319Z,260
2018-06-09T07:32:04.548Z,245
2018-06-09T07:33:04.574Z,245
2018-06-09T07:34:04.857Z,255
2018-06-09T07:35:04.679Z,295
2018-06-09T07:36:04.907Z,330
2018-06-09T07:37:04.935Z,290
2018-06-09T07:38:04.705Z,330
2018-06-09T07:39:04.980Z,370
2018-06-09T07:40:05.013Z,325
2018-06-09T07:41:04.788Z,330
2018-06-09T07:42:05.316Z,375
2018-06-09T07:43:04.331Z,380
2018-06-09T07:44:05.368Z,370
2018-06-09T07:45:04.883Z,330
2018-06-09T07:46:05.467Z,330
2018-06-09T07:47:05.448Z,370
2018-06-09T07:48:05.298Z,350
2018-06-09T07:49:05.500Z,325
2018-06-09T07:50:05.526Z,325
2018-06-09T07:51:05.555Z,320
2018-06-09T07:52:05.589Z,375
2018-06-09T07:53:05.365Z,355
2018-06-09T07:54:05.705Z,365
2018-06-09T07:55:05.597Z,375
2018-06-09T07:56:05.664Z,375
2018-06-09T07:57:05.443Z,415
2018-06-09T07:58:05.473Z,400
2018-06-09T07:59:05.251Z,365
2018-06-09T08:00:05.791Z,355
2018-06-09T08:01:05.881Z,335
2018-06-09T08:02:05.620Z,325
2018-06-09T08:03:05.878Z,315
2018-06-09T08:04:05.651Z,315
2018-06-09T08:05:05.422Z,315
2018-06-09T08:06:05.689Z,325
2018-06-09T08:07:05.759Z,330
2018-06-09T08:08:05.751Z,340
2018-06-09T08:09:05.552Z,360
2018-06-09T08:10:06.070Z,370
2018-06-09T08:11:05.849Z,420
2018-06-09T08:12:05.614Z,405
2018-06-09T08:13:06.165Z,350
2018-06-09T08:14:06.071Z,360
2018-06-09T08:15:05.934Z,380
2018-06-09T08:16:06.247Z,435
2018-06-09T08:17:06.271Z,430
2018-06-09T08:18:06.288Z,385
2018-06-09T08:19:05.809Z,390
2018-06-09T08:20:06.090Z,370
2018-06-09T08:21:06.372Z,375
2018-06-09T08:22:06.403Z,375
2018-06-09T08:23:06.182Z,355
2018-06-09T08:24:06.188Z,345
2018-06-09T08:25:06.230Z,330
2018-06-09T08:26:06.271Z,320
2018-06-09T08:27:06.483Z,315
2018-06-09T08:28:06.305Z,315
2018-06-09T08:29:06.814Z,365
2018-06-09T08:30:06.620Z,365
2018-06-09T08:31:06.047Z,355
2018-06-09T08:32:06.184Z,315
2018-06-09T08:33:06.692Z,300
2018-06-09T08:34:05.953Z,305
2018-06-09T08:35:05.990Z,295
2018-06-09T08:36:06.723Z,305
2018-06-09T08:37:06.287Z,300
2018-06-09T08:38:06.564Z,310
2018-06-09T08:39:06.601Z,310
2018-06-09T08:40:06.869Z,315
2018-06-09T08:41:06.696Z,315
2018-06-09T08:42:07.354Z,315
2018-06-09T08:43:06.447Z,315
2018-06-09T08:44:07.010Z,325
2018-06-09T08:45:07.009Z,355
2018-06-09T08:46:06.781Z,380
2018-06-09T08:47:07.075Z,420
2018-06-09T08:48:06.617Z,455
2018-06-09T08:49:06.619Z,420
2018-06-09T08:50:06.922Z,380
2018-06-09T08:51:06.939Z,370
2018-06-09T08:52:07.228Z,365
2018-06-09T08:53:06.733Z,370
2018-06-09T08:54:07.019Z,360
2018-06-09T08:55:06.795Z,350
2018-06-09T08:56:06.871Z,355
2018-06-09T08:57:06.870Z,360
2018-06-09T08:58:07.382Z,370
2018-06-09T08:59:06.907Z,400
2018-06-09T09:00:07.232Z,400
2018-06-09T09:01:07.212Z,420
2018-06-09T09:02:06.990Z,490
2018-06-09T09:03:07.622Z,530
2018-06-09T09:04:07.294Z,540
2018-06-09T09:05:07.081Z,555
2018-06-09T09:06:07.611Z,440
2018-06-09T09:07:07.639Z,440
2018-06-09T09:08:07.637Z,430
2018-06-09T09:09:07.416Z,425
2018-06-09T09:10:07.192Z,490
2018-06-09T09:11:07.278Z,495
2018-06-09T09:12:07.772Z,495
2018-06-09T09:13:07.280Z,485
2018-06-09T09:14:07.809Z,480
2018-06-09T09:15:07.343Z,395
2018-06-09T09:16:07.620Z,395
2018-06-09T09:17:07.938Z,525
2018-06-09T09:18:07.441Z,525
2018-06-09T09:19:07.730Z,525
2018-06-09T09:20:08.007Z,605
2018-06-09T09:21:07.563Z,615
2018-06-09T09:22:07.815Z,565
2018-06-09T09:23:07.845Z,645
2018-06-09T09:24:08.134Z,645
2018-06-09T09:25:08.164Z,650
2018-06-09T09:26:07.981Z,640
2018-06-09T09:27:08.223Z,540
2018-06-09T09:28:08.006Z,545
2018-06-09T09:29:07.768Z,495
2018-06-09T09:30:08.304Z,485
2018-06-09T09:31:08.329Z,490
2018-06-09T09:32:08.146Z,500
2018-06-09T09:33:08.146Z,570
2018-06-09T09:34:08.168Z,430
2018-06-09T09:35:08.495Z,420
2018-06-09T09:36:08.482Z,420
2018-06-09T09:37:08.253Z,435
2018-06-09T09:38:08.537Z,490
2018-06-09T09:39:08.322Z,565
2018-06-09T09:40:08.362Z,555
2018-06-09T09:41:08.699Z,440
2018-06-09T09:42:08.655Z,430
2018-06-09T09:43:08.179Z,430
2018-06-09T09:44:08.457Z,435
2018-06-09T09:45:08.489Z,480
2018-06-09T09:46:08.258Z,445
2018-06-09T09:47:08.290Z,520
2018-06-09T09:48:08.582Z,420
2018-06-09T09:49:08.851Z,405
2018-06-09T09:50:08.881Z,405
2018-06-09T09:51:08.926Z,415
2018-06-09T09:52:08.710Z,435
2018-06-09T09:53:08.715Z,485
2018-06-09T09:54:08.750Z,585
2018-06-09T09:55:08.524Z,575
2018-06-09T09:56:08.594Z,635
2018-06-09T09:57:08.578Z,605
2018-06-09T09:58:09.114Z,540
2018-06-09T09:59:09.151Z,485
2018-06-09T10:00:08.925Z,585
2018-06-09T10:01:09.261Z,580
2018-06-09T10:02:08.984Z,585
2018-06-09T10:03:09.270Z,455
2018-06-09T10:04:09.295Z,460
2018-06-09T10:05:09.067Z,485
2018-06-09T10:06:09.126Z,595
2018-06-09T10:07:09.380Z,680
2018-06-09T10:08:09.158Z,730
2018-06-09T10:09:09.188Z,735
2018-06-09T10:10:09.233Z,735
2018-06-09T10:11:08.964Z,730
2018-06-09T10:12:09.256Z,725
2018-06-09T10:13:09.551Z,700
2018-06-09T10:14:09.559Z,645
2018-06-09T10:15:09.346Z,580
2018-06-09T10:16:09.420Z,505
2018-06-09T10:17:09.440Z,500
2018-06-09T10:18:09.481Z,500
2018-06-09T10:19:09.501Z,505
2018-06-09T10:20:09.271Z,535
2018-06-09T10:21:09.322Z,630
2018-06-09T10:22:09.843Z,640
2018-06-09T10:23:09.365Z,635
2018-06-09T10:24:09.925Z,630
2018-06-09T10:25:09.680Z,610
2018-06-09T10:26:09.813Z,620
2018-06-09T10:27:09.745Z,620
2018-06-09T10:28:10.030Z,625
2018-06-09T10:29:09.557Z,625
2018-06-09T10:30:09.840Z,635
2018-06-09T10:31:10.180Z,605
2018-06-09T10:32:09.651Z,620
2018-06-09T10:33:10.191Z,660
2018-06-09T10:34:09.710Z,675
2018-06-09T10:35:10.255Z,685
2018-06-09T10:36:10.054Z,505
2018-06-09T10:37:10.434Z,505
2018-06-09T10:38:10.100Z,525
2018-06-09T10:39:10.130Z,670
2018-06-09T10:40:10.165Z,590
2018-06-09T10:41:10.444Z,565
2018-06-09T10:42:10.226Z,560
2018-06-09T10:43:10.009Z,460
2018-06-09T10:44:10.332Z,465
2018-06-09T10:45:09.825Z,505
2018-06-09T10:46:10.429Z,535
2018-06-09T10:47:10.383Z,570
2018-06-09T10:48:10.433Z,545
2018-06-09T10:49:10.182Z,455
2018-06-09T10:50:10.468Z,460
2018-06-09T10:51:10.245Z,610
2018-06-09T10:52:10.280Z,690
2018-06-09T10:53:10.073Z,705
2018-06-09T10:54:10.597Z,715
2018-06-09T10:55:10.875Z,525
2018-06-09T10:56:10.408Z,525
2018-06-09T10:57:10.417Z,685
2018-06-09T10:58:10.698Z,730
2018-06-09T10:59:10.737Z,655
2018-06-09T11:00:10.775Z,675
2018-06-09T11:01:10.099Z,500
2018-06-09T11:02:10.581Z,480
2018-06-09T11:03:11.115Z,495
2018-06-09T11:04:10.917Z,510
2018-06-09T11:05:10.960Z,685
2018-06-09T11:06:10.729Z,685
2018-06-09T11:07:10.768Z,695
2018-06-09T11:08:10.539Z,700
2018-06-09T11:09:11.078Z,695
2018-06-09T11:10:11.068Z,685
2018-06-09T11:11:10.923Z,530
2018-06-09T11:12:10.926Z,695
2018-06-09T11:13:11.474Z,720
2018-06-09T11:14:10.983Z,735
2018-06-09T11:15:11.499Z,745
2018-06-09T11:16:11.101Z,725
2018-06-09T11:17:11.445Z,725
2018-06-09T11:18:11.645Z,580
2018-06-09T11:19:11.410Z,595
2018-06-09T11:20:11.447Z,590
2018-06-09T11:21:11.723Z,725
2018-06-09T11:22:11.261Z,715
2018-06-09T11:23:11.286Z,570
2018-06-09T11:24:11.570Z,455
2018-06-09T11:25:11.873Z,460
2018-06-09T11:26:11.986Z,480
2018-06-09T11:27:11.687Z,490
2018-06-09T11:28:11.700Z,490
2018-06-09T11:29:11.984Z,505
2018-06-09T11:30:12.015Z,540
2018-06-09T11:31:12.199Z,545
2018-06-09T11:32:11.830Z,565
2018-06-09T11:33:11.353Z,740
2018-06-09T11:34:11.896Z,630
2018-06-09T11:35:11.671Z,840
2018-06-09T11:36:11.512Z,860
2018-06-09T11:37:12.021Z,835
2018-06-09T11:38:12.018Z,850
2018-06-09T11:39:11.799Z,775
2018-06-09T11:40:12.085Z,795
2018-06-09T11:41:11.766Z,705
2018-06-09T11:42:12.151Z,820
2018-06-09T11:43:12.173Z,840
2018-06-09T11:44:12.212Z,840
2018-06-09T11:45:12.494Z,860
2018-06-09T11:46:12.556Z,880
2018-06-09T11:47:12.828Z,895
2018-06-09T11:48:12.598Z,910
2018-06-09T11:49:12.388Z,945
2018-06-09T11:50:12.405Z,955
2018-06-09T11:51:12.462Z,980
2018-06-09T11:52:12.723Z,1000
2018-06-09T11:53:12.516Z,985
2018-06-09T11:54:12.284Z,960
2018-06-09T11:55:12.580Z,950
2018-06-09T11:56:12.656Z,950
2018-06-09T11:57:12.647Z,940
2018-06-09T11:58:12.935Z,975
2018-06-09T11:59:12.480Z,970
2018-06-09T12:00:12.780Z,970
2018-06-09T12:01:12.800Z,980
2018-06-09T12:02:12.832Z,975
2018-06-09T12:03:12.873Z,995
2018-06-09T12:04:13.161Z,1015
2018-06-09T12:05:13.196Z,1040
2018-06-09T12:06:12.975Z,1055
2018-06-09T12:07:12.756Z,1050
2018-06-09T12:08:12.798Z,1045
2018-06-09T12:09:13.336Z,1055
2018-06-09T12:10:12.866Z,1080
2018-06-09T12:11:13.415Z,1105
2018-06-09T12:12:13.460Z,1090
2018-06-09T12:13:12.725Z,1125
2018-06-09T12:14:13.257Z,1230
2018-06-09T12:15:13.301Z,1350
2018-06-09T12:16:13.336Z,1400
2018-06-09T12:17:13.737Z,1435
2018-06-09T12:18:13.412Z,1445
2018-06-09T12:19:13.696Z,1455
2018-06-09T12:20:13.683Z,1465
2018-06-09T12:21:13.519Z,1475
2018-06-09T12:22:13.804Z,1445
2018-06-09T12:23:13.332Z,1440
2018-06-09T12:24:13.396Z,1535
2018-06-09T12:25:14.092Z,1675
2018-06-09T12:26:13.756Z,1695
2018-06-09T12:27:13.739Z,1635
2018-06-09T12:28:14.015Z,1555
2018-06-09T12:29:13.790Z,1655
2018-06-09T12:30:13.573Z,1745
2018-06-09T12:31:13.868Z,1710
2018-06-09T12:32:14.169Z,1570
2018-06-09T12:33:13.951Z,1380
2018-06-09T12:34:14.241Z,935
2018-06-09T12:35:14.037Z,975
2018-06-09T12:36:14.323Z,1685
2018-06-09T12:37:14.357Z,1815
2018-06-09T12:38:14.138Z,1780
2018-06-09T12:39:13.928Z,1710
2018-06-09T12:40:14.211Z,1855
2018-06-09T12:41:14.071Z,1900
2018-06-09T12:42:14.291Z,1805
2018-06-09T12:43:14.055Z,1830
2018-06-09T12:44:13.842Z,1800
2018-06-09T12:45:14.374Z,1775
2018-06-09T12:46:14.231Z,1735
2018-06-09T12:47:14.729Z,1740
2018-06-09T12:48:14.520Z,1755
2018-06-09T12:49:14.044Z,1720
2018-06-09T12:50:14.351Z,1550
2018-06-09T12:51:14.942Z,1355
2018-06-09T12:52:14.646Z,1270
2018-06-09T12:53:14.434Z,1120
2018-06-09T12:54:14.486Z,595
2018-06-09T12:55:14.753Z,580
2018-06-09T12:56:15.056Z,615
2018-06-09T12:57:15.084Z,615
2018-06-09T12:58:14.865Z,1020
2018-06-09T12:59:14.652Z,1040
2018-06-09T13:00:15.189Z,1070
2018-06-09T13:01:15.297Z,1235
2018-06-09T13:02:15.281Z,1460
2018-06-09T13:03:14.800Z,1660
2018-06-09T13:04:15.094Z,1855
2018-06-09T13:05:15.690Z,1880
2018-06-09T13:06:15.434Z,1800
2018-06-09T13:07:14.704Z,1740
2018-06-09T13:08:15.499Z,1710
2018-06-09T13:09:15.291Z,1675
2018-06-09T13:10:15.070Z,1755
2018-06-09T13:11:15.386Z,1750
2018-06-09T13:12:15.401Z,920
2018-06-09T13:13:15.442Z,575
2018-06-09T13:14:15.058Z,575
2018-06-09T13:15:15.516Z,1320
2018-06-09T13:16:15.609Z,1660
2018-06-09T13:17:15.570Z,1600
2018-06-09T13:18:15.608Z,1450
2018-06-09T13:19:16.295Z,1240
2018-06-09T13:20:15.692Z,1070
2018-06-09T13:21:15.722Z,1045
2018-06-09T13:22:15.764Z,1055
2018-06-09T13:23:15.811Z,900
2018-06-09T13:24:15.610Z,1330
2018-06-09T13:25:16.118Z,1420
2018-06-09T13:26:16.180Z,1555
2018-06-09T13:27:15.195Z,1700
2018-06-09T13:28:15.735Z,1690
2018-06-09T13:29:16.023Z,1545
2018-06-09T13:30:16.115Z,1405
2018-06-09T13:31:16.156Z,1285
2018-06-09T13:32:16.178Z,1345
2018-06-09T13:33:16.442Z,1475
2018-06-09T13:34:16.483Z,1550
2018-06-09T13:35:16.261Z,1465
2018-06-09T13:36:16.949Z,1315
2018-06-09T13:37:16.085Z,1305
2018-06-09T13:38:16.377Z,1450
2018-06-09T13:39:16.412Z,1680
2018-06-09T13:40:16.459Z,765
2018-06-09T13:41:16.510Z,1620
2018-06-09T13:42:16.534Z,650
2018-06-09T13:43:16.313Z,590
2018-06-09T13:44:16.621Z,590
2018-06-09T13:45:16.642Z,690
2018-06-09T13:46:16.676Z,1855
2018-06-09T13:47:16.773Z,1850
2018-06-09T13:48:17.009Z,1780
2018-06-09T13:49:16.796Z,1820
2018-06-09T13:50:17.082Z,1860
2018-06-09T13:51:16.886Z,1815
2018-06-09T13:52:16.901Z,1985
2018-06-09T13:53:16.940Z,2080
2018-06-09T13:54:16.739Z,2145
2018-06-09T13:55:17.273Z,2155
2018-06-09T13:56:16.800Z,2050
2018-06-09T13:57:16.853Z,2000
2018-06-09T13:58:16.879Z,2025
2018-06-09T13:59:16.935Z,2115
2018-06-09T14:00:17.458Z,2210